sensor_id;sensor_type;location;lat;lon;timestamp;P1;durP1;ratioP1;P2;durP2;ratioP2
17570;SDS011;8903;52.220;20.978;2023-04-24T00:00:15;10.47;;;8.33;;
17570;SDS011;8903;52.220;20.978;2023-04-24T00:02:43;15.03;;;8.87;;
17570;SDS011;8903;52.220;20.978;2023-04-24T00:05:12;11.40;;;10.03;;
17570;SDS011;8903;52.220;20.978;2023-04-24T00:07:39;10.57;;;8.73;;
17570;SDS011;8903;52.220;20.978;2023-04-24T00:10:07;10.23;;;9.07;;
17570;SDS011;8903;52.220;20.978;2023-04-24T00:12:34;12.80;;;10.80;;
17570;SDS011;8903;52.220;20.978;2023-04-24T00:15:04;12.17;;;9.83;;
17570;SDS011;8903;52.220;20.978;2023-04-24T00:17:32;12.60;;;10.30;;
17570;SDS011;8903;52.220;20.978;2023-04-24T00:19:59;14.40;;;10.50;;
17570;SDS011;8903;52.220;20.978;2023-04-24T00:22:27;13.20;;;10.73;;
17570;SDS011;8903;52.220;20.978;2023-04-24T00:24:54;10.93;;;9.87;;
17570;SDS011;8903;52.220;20.978;2023-04-24T00:27:21;10.67;;;9.57;;
17570;SDS011;8903;52.220;20.978;2023-04-24T00:29:49;10.20;;;9.10;;
17570;SDS011;8903;52.220;20.978;2023-04-24T00:32:17;11.53;;;9.90;;
17570;SDS011;8903;52.220;20.978;2023-04-24T00:34:44;16.40;;;10.37;;
17570;SDS011;8903;52.220;20.978;2023-04-24T00:37:11;12.40;;;10.40;;
17570;SDS011;8903;52.220;20.978;2023-04-24T00:39:38;12.10;;;9.17;;
17570;SDS011;8903;52.220;20.978;2023-04-24T00:42:05;11.03;;;9.67;;
17570;SDS011;8903;52.220;20.978;2023-04-24T00:44:32;11.37;;;10.17;;
17570;SDS011;8903;52.220;20.978;2023-04-24T00:46:59;12.00;;;9.30;;
17570;SDS011;8903;52.220;20.978;2023-04-24T00:49:28;11.70;;;9.70;;
17570;SDS011;8903;52.220;20.978;2023-04-24T00:51:55;11.90;;;9.07;;
17570;SDS011;8903;52.220;20.978;2023-04-24T00:54:24;12.37;;;9.70;;
17570;SDS011;8903;52.220;20.978;2023-04-24T00:56:51;11.17;;;10.07;;
17570;SDS011;8903;52.220;20.978;2023-04-24T00:59:18;11.40;;;9.43;;
17570;SDS011;8903;52.220;20.978;2023-04-24T01:01:46;13.03;;;9.73;;
17570;SDS011;8903;52.220;20.978;2023-04-24T01:04:13;12.10;;;10.47;;
17570;SDS011;8903;52.220;20.978;2023-04-24T01:06:44;12.23;;;9.37;;
17570;SDS011;8903;52.220;20.978;2023-04-24T01:09:12;12.33;;;10.50;;
17570;SDS011;8903;52.220;20.978;2023-04-24T01:11:39;10.90;;;9.60;;
17570;SDS011;8903;52.220;20.978;2023-04-24T01:14:08;13.27;;;10.67;;
17570;SDS011;8903;52.220;20.978;2023-04-24T01:16:35;11.63;;;9.87;;
17570;SDS011;8903;52.220;20.978;2023-04-24T01:19:03;12.50;;;11.20;;
17570;SDS011;8903;52.220;20.978;2023-04-24T01:21:31;13.73;;;9.80;;
17570;SDS011;8903;52.220;20.978;2023-04-24T01:24:03;11.30;;;9.37;;
17570;SDS011;8903;52.220;20.978;2023-04-24T01:26:31;11.73;;;9.87;;
17570;SDS011;8903;52.220;20.978;2023-04-24T01:28:59;12.70;;;10.17;;
17570;SDS011;8903;52.220;20.978;2023-04-24T01:31:26;13.37;;;11.03;;
17570;SDS011;8903;52.220;20.978;2023-04-24T01:33:53;13.23;;;10.30;;
17570;SDS011;8903;52.220;20.978;2023-04-24T01:36:21;11.43;;;10.23;;
17570;SDS011;8903;52.220;20.978;2023-04-24T01:38:48;25.23;;;11.47;;
17570;SDS011;8903;52.220;20.978;2023-04-24T01:41:17;12.07;;;10.20;;
17570;SDS011;8903;52.220;20.978;2023-04-24T01:43:44;12.87;;;11.47;;
17570;SDS011;8903;52.220;20.978;2023-04-24T01:46:11;10.93;;;9.83;;
17570;SDS011;8903;52.220;20.978;2023-04-24T01:48:38;16.30;;;14.80;;
17570;SDS011;8903;52.220;20.978;2023-04-24T01:51:06;13.10;;;11.27;;
17570;SDS011;8903;52.220;20.978;2023-04-24T01:53:33;15.17;;;11.70;;
17570;SDS011;8903;52.220;20.978;2023-04-24T01:56:01;11.23;;;9.97;;
17570;SDS011;8903;52.220;20.978;2023-04-24T01:58:30;11.83;;;10.23;;
17570;SDS011;8903;52.220;20.978;2023-04-24T02:00:57;11.73;;;10.03;;
17570;SDS011;8903;52.220;20.978;2023-04-24T02:03:25;12.67;;;10.53;;
17570;SDS011;8903;52.220;20.978;2023-04-24T02:05:53;13.90;;;10.10;;
17570;SDS011;8903;52.220;20.978;2023-04-24T02:08:20;13.10;;;10.10;;
17570;SDS011;8903;52.220;20.978;2023-04-24T02:10:48;12.53;;;11.23;;
17570;SDS011;8903;52.220;20.978;2023-04-24T02:13:15;13.10;;;10.27;;
17570;SDS011;8903;52.220;20.978;2023-04-24T02:15:43;13.13;;;9.90;;
17570;SDS011;8903;52.220;20.978;2023-04-24T02:18:10;17.73;;;10.77;;
17570;SDS011;8903;52.220;20.978;2023-04-24T02:20:38;14.23;;;10.97;;
17570;SDS011;8903;52.220;20.978;2023-04-24T02:23:05;12.73;;;11.30;;
17570;SDS011;8903;52.220;20.978;2023-04-24T02:25:32;12.00;;;10.70;;
17570;SDS011;8903;52.220;20.978;2023-04-24T02:27:59;11.80;;;10.43;;
17570;SDS011;8903;52.220;20.978;2023-04-24T02:30:27;11.87;;;10.77;;
17570;SDS011;8903;52.220;20.978;2023-04-24T02:32:55;13.17;;;11.77;;
17570;SDS011;8903;52.220;20.978;2023-04-24T02:35:22;13.30;;;11.57;;
17570;SDS011;8903;52.220;20.978;2023-04-24T02:37:49;13.23;;;10.50;;
17570;SDS011;8903;52.220;20.978;2023-04-24T02:40:16;14.80;;;10.07;;
17570;SDS011;8903;52.220;20.978;2023-04-24T02:42:43;11.60;;;10.50;;
17570;SDS011;8903;52.220;20.978;2023-04-24T02:45:10;11.10;;;9.90;;
17570;SDS011;8903;52.220;20.978;2023-04-24T02:47:38;11.77;;;10.30;;
17570;SDS011;8903;52.220;20.978;2023-04-24T02:50:07;15.67;;;11.40;;
17570;SDS011;8903;52.220;20.978;2023-04-24T02:52:35;13.43;;;11.03;;
17570;SDS011;8903;52.220;20.978;2023-04-24T02:55:02;13.57;;;10.57;;
17570;SDS011;8903;52.220;20.978;2023-04-24T02:57:29;11.53;;;10.13;;
17570;SDS011;8903;52.220;20.978;2023-04-24T02:59:56;13.97;;;11.10;;
17570;SDS011;8903;52.220;20.978;2023-04-24T03:02:23;12.80;;;11.50;;
17570;SDS011;8903;52.220;20.978;2023-04-24T03:04:50;13.77;;;11.73;;
17570;SDS011;8903;52.220;20.978;2023-04-24T03:07:18;12.63;;;11.33;;
17570;SDS011;8903;52.220;20.978;2023-04-24T03:09:46;15.33;;;10.70;;
17570;SDS011;8903;52.220;20.978;2023-04-24T03:12:14;12.37;;;10.70;;
17570;SDS011;8903;52.220;20.978;2023-04-24T03:14:42;14.93;;;11.37;;
17570;SDS011;8903;52.220;20.978;2023-04-24T03:17:09;10.70;;;9.70;;
17570;SDS011;8903;52.220;20.978;2023-04-24T03:19:36;11.50;;;10.33;;
17570;SDS011;8903;52.220;20.978;2023-04-24T03:22:08;13.10;;;10.60;;
17570;SDS011;8903;52.220;20.978;2023-04-24T03:24:38;13.83;;;10.90;;
17570;SDS011;8903;52.220;20.978;2023-04-24T03:27:06;17.13;;;10.60;;
17570;SDS011;8903;52.220;20.978;2023-04-24T03:29:51;11.47;;;10.37;;
17570;SDS011;8903;52.220;20.978;2023-04-24T03:32:22;13.10;;;10.60;;
17570;SDS011;8903;52.220;20.978;2023-04-24T03:34:51;13.63;;;10.60;;
17570;SDS011;8903;52.220;20.978;2023-04-24T03:37:19;13.23;;;10.30;;
17570;SDS011;8903;52.220;20.978;2023-04-24T03:39:56;13.03;;;10.43;;
17570;SDS011;8903;52.220;20.978;2023-04-24T03:42:24;15.97;;;11.17;;
17570;SDS011;8903;52.220;20.978;2023-04-24T03:44:54;16.10;;;11.37;;
17570;SDS011;8903;52.220;20.978;2023-04-24T03:47:25;11.70;;;10.60;;
17570;SDS011;8903;52.220;20.978;2023-04-24T03:49:55;11.53;;;10.33;;
17570;SDS011;8903;52.220;20.978;2023-04-24T03:52:23;11.00;;;9.90;;
17570;SDS011;8903;52.220;20.978;2023-04-24T03:54:50;12.80;;;11.47;;
17570;SDS011;8903;52.220;20.978;2023-04-24T03:57:18;12.53;;;11.27;;
17570;SDS011;8903;52.220;20.978;2023-04-24T03:59:59;13.37;;;10.13;;
17570;SDS011;8903;52.220;20.978;2023-04-24T04:02:39;13.93;;;10.10;;
17570;SDS011;8903;52.220;20.978;2023-04-24T04:05:08;14.70;;;10.60;;
17570;SDS011;8903;52.220;20.978;2023-04-24T04:07:35;14.73;;;11.30;;
17570;SDS011;8903;52.220;20.978;2023-04-24T04:10:02;14.33;;;11.40;;
17570;SDS011;8903;52.220;20.978;2023-04-24T04:12:31;11.70;;;10.40;;
17570;SDS011;8903;52.220;20.978;2023-04-24T04:14:58;16.60;;;12.47;;
17570;SDS011;8903;52.220;20.978;2023-04-24T04:17:25;12.23;;;10.20;;
17570;SDS011;8903;52.220;20.978;2023-04-24T04:19:53;11.80;;;10.60;;
17570;SDS011;8903;52.220;20.978;2023-04-24T04:22:20;11.57;;;10.37;;
17570;SDS011;8903;52.220;20.978;2023-04-24T04:24:49;13.50;;;10.93;;
17570;SDS011;8903;52.220;20.978;2023-04-24T04:27:20;13.33;;;11.37;;
17570;SDS011;8903;52.220;20.978;2023-04-24T04:29:56;13.53;;;11.17;;
17570;SDS011;8903;52.220;20.978;2023-04-24T04:32:23;11.77;;;10.40;;
17570;SDS011;8903;52.220;20.978;2023-04-24T04:34:51;13.50;;;10.73;;
17570;SDS011;8903;52.220;20.978;2023-04-24T04:37:19;15.10;;;10.40;;
17570;SDS011;8903;52.220;20.978;2023-04-24T04:39:54;22.53;;;11.43;;
17570;SDS011;8903;52.220;20.978;2023-04-24T04:42:23;11.03;;;10.03;;
17570;SDS011;8903;52.220;20.978;2023-04-24T04:44:50;13.40;;;10.90;;
17570;SDS011;8903;52.220;20.978;2023-04-24T04:47:24;12.60;;;10.03;;
17570;SDS011;8903;52.220;20.978;2023-04-24T04:49:54;13.83;;;11.13;;
17570;SDS011;8903;52.220;20.978;2023-04-24T04:52:24;11.83;;;10.33;;
17570;SDS011;8903;52.220;20.978;2023-04-24T04:54:59;14.10;;;10.70;;
17570;SDS011;8903;52.220;20.978;2023-04-24T04:57:40;16.73;;;11.30;;
17570;SDS011;8903;52.220;20.978;2023-04-24T05:00:07;15.93;;;10.80;;
17570;SDS011;8903;52.220;20.978;2023-04-24T05:02:46;14.30;;;10.63;;
17570;SDS011;8903;52.220;20.978;2023-04-24T05:05:13;15.33;;;11.43;;
17570;SDS011;8903;52.220;20.978;2023-04-24T05:07:42;12.93;;;10.30;;
17570;SDS011;8903;52.220;20.978;2023-04-24T05:10:10;15.07;;;10.97;;
17570;SDS011;8903;52.220;20.978;2023-04-24T05:12:38;15.40;;;12.10;;
17570;SDS011;8903;52.220;20.978;2023-04-24T05:15:06;12.03;;;10.93;;
17570;SDS011;8903;52.220;20.978;2023-04-24T05:17:33;12.60;;;11.40;;
17570;SDS011;8903;52.220;20.978;2023-04-24T05:20:02;21.00;;;11.63;;
17570;SDS011;8903;52.220;20.978;2023-04-24T05:22:31;12.13;;;10.80;;
17570;SDS011;8903;52.220;20.978;2023-04-24T05:24:59;15.37;;;11.33;;
17570;SDS011;8903;52.220;20.978;2023-04-24T05:27:48;16.80;;;11.93;;
17570;SDS011;8903;52.220;20.978;2023-04-24T05:30:17;12.63;;;11.37;;
17570;SDS011;8903;52.220;20.978;2023-04-24T05:32:44;14.60;;;11.10;;
17570;SDS011;8903;52.220;20.978;2023-04-24T05:35:13;17.77;;;10.53;;
17570;SDS011;8903;52.220;20.978;2023-04-24T05:37:41;15.93;;;10.60;;
17570;SDS011;8903;52.220;20.978;2023-04-24T05:40:09;15.03;;;11.43;;
17570;SDS011;8903;52.220;20.978;2023-04-24T05:42:37;12.03;;;10.30;;
17570;SDS011;8903;52.220;20.978;2023-04-24T05:45:04;15.00;;;10.50;;
17570;SDS011;8903;52.220;20.978;2023-04-24T05:47:34;12.57;;;10.50;;
17570;SDS011;8903;52.220;20.978;2023-04-24T05:50:01;12.47;;;9.90;;
17570;SDS011;8903;52.220;20.978;2023-04-24T05:52:29;16.60;;;10.67;;
17570;SDS011;8903;52.220;20.978;2023-04-24T05:54:57;14.03;;;10.40;;
17570;SDS011;8903;52.220;20.978;2023-04-24T05:57:29;17.30;;;12.47;;
17570;SDS011;8903;52.220;20.978;2023-04-24T06:00:00;13.20;;;11.03;;
17570;SDS011;8903;52.220;20.978;2023-04-24T06:02:38;15.60;;;10.03;;
17570;SDS011;8903;52.220;20.978;2023-04-24T06:05:09;11.50;;;9.07;;
17570;SDS011;8903;52.220;20.978;2023-04-24T06:07:37;11.13;;;9.87;;
17570;SDS011;8903;52.220;20.978;2023-04-24T06:10:06;16.37;;;10.57;;
17570;SDS011;8903;52.220;20.978;2023-04-24T06:12:39;11.63;;;9.13;;
17570;SDS011;8903;52.220;20.978;2023-04-24T06:15:13;13.60;;;10.80;;
17570;SDS011;8903;52.220;20.978;2023-04-24T06:17:58;11.40;;;10.20;;
17570;SDS011;8903;52.220;20.978;2023-04-24T06:20:25;13.90;;;11.30;;
17570;SDS011;8903;52.220;20.978;2023-04-24T06:22:54;11.93;;;10.67;;
17570;SDS011;8903;52.220;20.978;2023-04-24T06:25:21;19.77;;;12.17;;
17570;SDS011;8903;52.220;20.978;2023-04-24T06:27:49;13.60;;;10.67;;
17570;SDS011;8903;52.220;20.978;2023-04-24T06:30:16;16.17;;;11.13;;
17570;SDS011;8903;52.220;20.978;2023-04-24T06:32:44;17.20;;;11.07;;
17570;SDS011;8903;52.220;20.978;2023-04-24T06:35:11;24.43;;;12.57;;
17570;SDS011;8903;52.220;20.978;2023-04-24T06:37:38;21.40;;;11.50;;
17570;SDS011;8903;52.220;20.978;2023-04-24T06:40:07;15.23;;;11.97;;
17570;SDS011;8903;52.220;20.978;2023-04-24T06:42:35;13.87;;;10.83;;
17570;SDS011;8903;52.220;20.978;2023-04-24T06:45:03;14.60;;;10.33;;
17570;SDS011;8903;52.220;20.978;2023-04-24T06:47:30;14.40;;;10.57;;
17570;SDS011;8903;52.220;20.978;2023-04-24T06:49:57;12.40;;;10.20;;
17570;SDS011;8903;52.220;20.978;2023-04-24T06:52:24;22.27;;;11.10;;
17570;SDS011;8903;52.220;20.978;2023-04-24T06:54:51;11.30;;;10.23;;
17570;SDS011;8903;52.220;20.978;2023-04-24T06:57:20;15.63;;;9.90;;
17570;SDS011;8903;52.220;20.978;2023-04-24T06:59:47;11.47;;;10.20;;
17570;SDS011;8903;52.220;20.978;2023-04-24T07:02:14;15.30;;;9.80;;
17570;SDS011;8903;52.220;20.978;2023-04-24T07:04:41;18.83;;;9.87;;
17570;SDS011;8903;52.220;20.978;2023-04-24T07:07:08;13.57;;;10.37;;
17570;SDS011;8903;52.220;20.978;2023-04-24T07:09:38;14.20;;;10.30;;
17570;SDS011;8903;52.220;20.978;2023-04-24T07:12:07;16.33;;;10.80;;
17570;SDS011;8903;52.220;20.978;2023-04-24T07:14:36;19.67;;;14.00;;
17570;SDS011;8903;52.220;20.978;2023-04-24T07:17:04;12.70;;;10.90;;
17570;SDS011;8903;52.220;20.978;2023-04-24T07:19:31;18.30;;;11.37;;
17570;SDS011;8903;52.220;20.978;2023-04-24T07:22:00;15.40;;;10.53;;
17570;SDS011;8903;52.220;20.978;2023-04-24T07:24:28;13.87;;;12.37;;
17570;SDS011;8903;52.220;20.978;2023-04-24T07:26:57;18.07;;;10.70;;
17570;SDS011;8903;52.220;20.978;2023-04-24T07:29:24;13.20;;;11.07;;
17570;SDS011;8903;52.220;20.978;2023-04-24T07:31:52;11.50;;;10.40;;
17570;SDS011;8903;52.220;20.978;2023-04-24T07:34:19;11.60;;;10.10;;
17570;SDS011;8903;52.220;20.978;2023-04-24T07:36:46;11.70;;;10.37;;
17570;SDS011;8903;52.220;20.978;2023-04-24T07:39:13;15.37;;;10.17;;
17570;SDS011;8903;52.220;20.978;2023-04-24T07:41:40;15.57;;;11.10;;
17570;SDS011;8903;52.220;20.978;2023-04-24T07:44:07;16.63;;;9.77;;
17570;SDS011;8903;52.220;20.978;2023-04-24T07:46:35;12.03;;;10.73;;
17570;SDS011;8903;52.220;20.978;2023-04-24T07:49:03;10.70;;;9.00;;
17570;SDS011;8903;52.220;20.978;2023-04-24T07:51:30;18.10;;;10.53;;
17570;SDS011;8903;52.220;20.978;2023-04-24T07:53:58;19.93;;;10.63;;
17570;SDS011;8903;52.220;20.978;2023-04-24T07:56:25;16.67;;;9.97;;
17570;SDS011;8903;52.220;20.978;2023-04-24T07:58:56;16.17;;;12.63;;
17570;SDS011;8903;52.220;20.978;2023-04-24T08:01:23;17.33;;;10.27;;
17570;SDS011;8903;52.220;20.978;2023-04-24T08:03:50;14.83;;;10.93;;
17570;SDS011;8903;52.220;20.978;2023-04-24T08:06:18;15.70;;;10.40;;
17570;SDS011;8903;52.220;20.978;2023-04-24T08:08:45;16.40;;;10.57;;
17570;SDS011;8903;52.220;20.978;2023-04-24T08:11:12;26.93;;;11.70;;
17570;SDS011;8903;52.220;20.978;2023-04-24T08:13:39;12.53;;;10.33;;
17570;SDS011;8903;52.220;20.978;2023-04-24T08:16:06;12.03;;;9.43;;
17570;SDS011;8903;52.220;20.978;2023-04-24T08:18:33;14.60;;;9.90;;
17570;SDS011;8903;52.220;20.978;2023-04-24T08:21:01;14.80;;;11.23;;
17570;SDS011;8903;52.220;20.978;2023-04-24T08:23:29;12.40;;;10.30;;
17570;SDS011;8903;52.220;20.978;2023-04-24T08:25:56;12.67;;;11.40;;
17570;SDS011;8903;52.220;20.978;2023-04-24T08:28:23;20.33;;;11.30;;
17570;SDS011;8903;52.220;20.978;2023-04-24T08:30:51;11.77;;;10.57;;
17570;SDS011;8903;52.220;20.978;2023-04-24T08:33:19;22.57;;;11.30;;
17570;SDS011;8903;52.220;20.978;2023-04-24T08:35:46;13.80;;;10.73;;
17570;SDS011;8903;52.220;20.978;2023-04-24T08:38:13;18.03;;;11.80;;
17570;SDS011;8903;52.220;20.978;2023-04-24T08:40:44;12.50;;;10.90;;
17570;SDS011;8903;52.220;20.978;2023-04-24T08:43:14;15.87;;;11.93;;
17570;SDS011;8903;52.220;20.978;2023-04-24T08:45:43;19.50;;;11.90;;
17570;SDS011;8903;52.220;20.978;2023-04-24T08:48:10;14.43;;;10.87;;
17570;SDS011;8903;52.220;20.978;2023-04-24T08:50:37;20.43;;;10.50;;
17570;SDS011;8903;52.220;20.978;2023-04-24T08:53:07;20.60;;;11.07;;
17570;SDS011;8903;52.220;20.978;2023-04-24T08:55:35;18.77;;;10.63;;
17570;SDS011;8903;52.220;20.978;2023-04-24T08:58:04;11.80;;;10.00;;
17570;SDS011;8903;52.220;20.978;2023-04-24T09:00:31;14.63;;;10.77;;
17570;SDS011;8903;52.220;20.978;2023-04-24T09:03:00;14.00;;;9.60;;
17570;SDS011;8903;52.220;20.978;2023-04-24T09:05:27;18.30;;;10.70;;
17570;SDS011;8903;52.220;20.978;2023-04-24T09:07:55;24.37;;;11.20;;
17570;SDS011;8903;52.220;20.978;2023-04-24T09:10:23;12.57;;;10.67;;
17570;SDS011;8903;52.220;20.978;2023-04-24T09:12:51;12.73;;;9.63;;
17570;SDS011;8903;52.220;20.978;2023-04-24T09:15:19;14.50;;;8.53;;
17570;SDS011;8903;52.220;20.978;2023-04-24T09:17:46;26.90;;;9.90;;
17570;SDS011;8903;52.220;20.978;2023-04-24T09:20:13;9.30;;;8.37;;
17570;SDS011;8903;52.220;20.978;2023-04-24T09:22:41;14.50;;;9.47;;
17570;SDS011;8903;52.220;20.978;2023-04-24T09:25:09;14.37;;;8.73;;
17570;SDS011;8903;52.220;20.978;2023-04-24T09:27:40;13.70;;;8.97;;
17570;SDS011;8903;52.220;20.978;2023-04-24T09:30:09;11.47;;;8.33;;
17570;SDS011;8903;52.220;20.978;2023-04-24T09:32:38;12.60;;;8.47;;
17570;SDS011;8903;52.220;20.978;2023-04-24T09:35:07;14.20;;;9.00;;
17570;SDS011;8903;52.220;20.978;2023-04-24T09:37:36;12.33;;;8.20;;
17570;SDS011;8903;52.220;20.978;2023-04-24T09:40:07;8.97;;;7.73;;
17570;SDS011;8903;52.220;20.978;2023-04-24T09:42:38;15.23;;;7.23;;
17570;SDS011;8903;52.220;20.978;2023-04-24T09:45:08;8.20;;;7.37;;
17570;SDS011;8903;52.220;20.978;2023-04-24T09:47:36;12.07;;;7.53;;
17570;SDS011;8903;52.220;20.978;2023-04-24T09:50:12;8.83;;;7.57;;
17570;SDS011;8903;52.220;20.978;2023-04-24T09:52:41;8.80;;;7.17;;
17570;SDS011;8903;52.220;20.978;2023-04-24T09:55:13;7.90;;;7.13;;
17570;SDS011;8903;52.220;20.978;2023-04-24T09:57:48;8.30;;;6.57;;
17570;SDS011;8903;52.220;20.978;2023-04-24T10:00:23;8.57;;;6.10;;
17570;SDS011;8903;52.220;20.978;2023-04-24T10:02:57;8.47;;;6.37;;
17570;SDS011;8903;52.220;20.978;2023-04-24T10:05:25;6.20;;;4.97;;
17570;SDS011;8903;52.220;20.978;2023-04-24T10:07:57;9.07;;;7.20;;
17570;SDS011;8903;52.220;20.978;2023-04-24T10:10:27;10.13;;;6.93;;
17570;SDS011;8903;52.220;20.978;2023-04-24T10:12:54;9.87;;;7.90;;
17570;SDS011;8903;52.220;20.978;2023-04-24T10:15:21;9.00;;;8.13;;
17570;SDS011;8903;52.220;20.978;2023-04-24T10:17:49;9.77;;;7.70;;
17570;SDS011;8903;52.220;20.978;2023-04-24T10:20:23;8.80;;;7.10;;
17570;SDS011;8903;52.220;20.978;2023-04-24T10:22:52;9.33;;;8.30;;
17570;SDS011;8903;52.220;20.978;2023-04-24T10:25:20;10.37;;;7.23;;
17570;SDS011;8903;52.220;20.978;2023-04-24T10:27:49;8.37;;;7.43;;
17570;SDS011;8903;52.220;20.978;2023-04-24T10:30:17;7.47;;;6.80;;
17570;SDS011;8903;52.220;20.978;2023-04-24T10:32:45;9.90;;;8.40;;
17570;SDS011;8903;52.220;20.978;2023-04-24T10:35:13;9.00;;;8.10;;
17570;SDS011;8903;52.220;20.978;2023-04-24T10:37:44;9.43;;;8.40;;
17570;SDS011;8903;52.220;20.978;2023-04-24T10:40:16;26.87;;;8.60;;
17570;SDS011;8903;52.220;20.978;2023-04-24T10:42:46;11.13;;;9.13;;
17570;SDS011;8903;52.220;20.978;2023-04-24T10:45:17;11.00;;;8.60;;
17570;SDS011;8903;52.220;20.978;2023-04-24T10:47:53;11.03;;;8.73;;
17570;SDS011;8903;52.220;20.978;2023-04-24T10:50:25;10.77;;;9.33;;
17570;SDS011;8903;52.220;20.978;2023-04-24T10:52:55;9.73;;;7.80;;
17570;SDS011;8903;52.220;20.978;2023-04-24T10:55:42;11.13;;;9.03;;
17570;SDS011;8903;52.220;20.978;2023-04-24T10:58:10;12.07;;;8.30;;
17570;SDS011;8903;52.220;20.978;2023-04-24T11:00:38;8.47;;;7.70;;
17570;SDS011;8903;52.220;20.978;2023-04-24T11:03:06;11.03;;;8.87;;
17570;SDS011;8903;52.220;20.978;2023-04-24T11:05:49;18.43;;;9.80;;
17570;SDS011;8903;52.220;20.978;2023-04-24T11:08:22;9.83;;;7.03;;
17570;SDS011;8903;52.220;20.978;2023-04-24T11:10:54;7.90;;;7.20;;
17570;SDS011;8903;52.220;20.978;2023-04-24T11:13:23;12.23;;;7.13;;
17570;SDS011;8903;52.220;20.978;2023-04-24T11:18:41;8.50;;;6.97;;
17570;SDS011;8903;52.220;20.978;2023-04-24T11:21:16;7.77;;;6.97;;
17570;SDS011;8903;52.220;20.978;2023-04-24T11:23:45;8.33;;;7.63;;
17570;SDS011;8903;52.220;20.978;2023-04-24T11:26:13;7.90;;;7.13;;
17570;SDS011;8903;52.220;20.978;2023-04-24T11:28:44;7.47;;;6.87;;
17570;SDS011;8903;52.220;20.978;2023-04-24T11:34:09;9.20;;;7.10;;
17570;SDS011;8903;52.220;20.978;2023-04-24T11:36:38;8.77;;;7.97;;
17570;SDS011;8903;52.220;20.978;2023-04-24T11:39:06;10.27;;;5.97;;
17570;SDS011;8903;52.220;20.978;2023-04-24T11:41:35;8.63;;;6.30;;
17570;SDS011;8903;52.220;20.978;2023-04-24T11:44:03;7.13;;;6.40;;
17570;SDS011;8903;52.220;20.978;2023-04-24T11:46:32;6.20;;;5.60;;
17570;SDS011;8903;52.220;20.978;2023-04-24T11:48:59;7.07;;;6.37;;
17570;SDS011;8903;52.220;20.978;2023-04-24T11:51:26;11.23;;;5.83;;
17570;SDS011;8903;52.220;20.978;2023-04-24T11:53:53;10.90;;;6.50;;
17570;SDS011;8903;52.220;20.978;2023-04-24T11:56:22;7.77;;;7.17;;
17570;SDS011;8903;52.220;20.978;2023-04-24T11:58:51;7.13;;;6.30;;
17570;SDS011;8903;52.220;20.978;2023-04-24T12:01:19;7.97;;;7.10;;
17570;SDS011;8903;52.220;20.978;2023-04-24T12:03:49;10.47;;;7.00;;
17570;SDS011;8903;52.220;20.978;2023-04-24T12:06:17;6.90;;;6.30;;
17570;SDS011;8903;52.220;20.978;2023-04-24T12:08:45;11.13;;;6.27;;
17570;SDS011;8903;52.220;20.978;2023-04-24T12:11:15;9.10;;;7.00;;
17570;SDS011;8903;52.220;20.978;2023-04-24T12:13:45;25.27;;;22.77;;
17570;SDS011;8903;52.220;20.978;2023-04-24T12:16:12;7.00;;;6.40;;
17570;SDS011;8903;52.220;20.978;2023-04-24T12:18:43;7.00;;;6.30;;
17570;SDS011;8903;52.220;20.978;2023-04-24T12:21:17;8.83;;;6.13;;
17570;SDS011;8903;52.220;20.978;2023-04-24T12:23:45;7.33;;;6.70;;
17570;SDS011;8903;52.220;20.978;2023-04-24T12:26:12;7.47;;;6.10;;
17570;SDS011;8903;52.220;20.978;2023-04-24T12:28:45;8.33;;;6.00;;
17570;SDS011;8903;52.220;20.978;2023-04-24T12:31:14;8.67;;;6.37;;
17570;SDS011;8903;52.220;20.978;2023-04-24T12:33:42;7.33;;;6.73;;
17570;SDS011;8903;52.220;20.978;2023-04-24T12:36:10;8.60;;;6.30;;
17570;SDS011;8903;52.220;20.978;2023-04-24T12:38:38;10.10;;;7.30;;
17570;SDS011;8903;52.220;20.978;2023-04-24T12:41:11;9.60;;;5.50;;
17570;SDS011;8903;52.220;20.978;2023-04-24T12:43:40;6.07;;;4.60;;
17570;SDS011;8903;52.220;20.978;2023-04-24T12:46:19;18.93;;;6.27;;
17570;SDS011;8903;52.220;20.978;2023-04-24T12:48:46;26.50;;;6.17;;
17570;SDS011;8903;52.220;20.978;2023-04-24T12:51:12;27.70;;;6.40;;
17570;SDS011;8903;52.220;20.978;2023-04-24T12:53:39;15.77;;;5.00;;
17570;SDS011;8903;52.220;20.978;2023-04-24T12:56:06;13.40;;;4.73;;
17570;SDS011;8903;52.220;20.978;2023-04-24T12:58:33;11.97;;;4.80;;
17570;SDS011;8903;52.220;20.978;2023-04-24T13:01:02;12.27;;;3.97;;
17570;SDS011;8903;52.220;20.978;2023-04-24T13:03:28;7.53;;;4.60;;
17570;SDS011;8903;52.220;20.978;2023-04-24T13:05:56;9.77;;;4.23;;
17570;SDS011;8903;52.220;20.978;2023-04-24T13:08:22;9.13;;;4.60;;
17570;SDS011;8903;52.220;20.978;2023-04-24T13:10:49;11.17;;;4.03;;
17570;SDS011;8903;52.220;20.978;2023-04-24T13:13:17;10.33;;;4.63;;
17570;SDS011;8903;52.220;20.978;2023-04-24T13:15:44;7.10;;;4.53;;
17570;SDS011;8903;52.220;20.978;2023-04-24T13:18:12;9.17;;;4.93;;
17570;SDS011;8903;52.220;20.978;2023-04-24T13:20:39;11.00;;;3.33;;
17570;SDS011;8903;52.220;20.978;2023-04-24T13:23:06;9.80;;;4.53;;
17570;SDS011;8903;52.220;20.978;2023-04-24T13:25:34;11.53;;;5.27;;
17570;SDS011;8903;52.220;20.978;2023-04-24T13:28:02;8.93;;;4.10;;
17570;SDS011;8903;52.220;20.978;2023-04-24T13:30:29;5.37;;;3.73;;
17570;SDS011;8903;52.220;20.978;2023-04-24T13:32:57;11.37;;;4.93;;
17570;SDS011;8903;52.220;20.978;2023-04-24T13:35:25;6.60;;;4.13;;
17570;SDS011;8903;52.220;20.978;2023-04-24T13:37:52;4.47;;;3.70;;
17570;SDS011;8903;52.220;20.978;2023-04-24T13:40:19;8.27;;;3.90;;
17570;SDS011;8903;52.220;20.978;2023-04-24T13:42:46;4.17;;;3.83;;
17570;SDS011;8903;52.220;20.978;2023-04-24T13:45:13;8.53;;;3.77;;
17570;SDS011;8903;52.220;20.978;2023-04-24T13:47:40;8.23;;;4.40;;
17570;SDS011;8903;52.220;20.978;2023-04-24T13:50:07;4.00;;;3.70;;
17570;SDS011;8903;52.220;20.978;2023-04-24T13:52:36;4.57;;;4.13;;
17570;SDS011;8903;52.220;20.978;2023-04-24T13:55:03;8.60;;;4.30;;
17570;SDS011;8903;52.220;20.978;2023-04-24T13:57:30;8.97;;;4.37;;
17570;SDS011;8903;52.220;20.978;2023-04-24T13:59:57;4.90;;;4.40;;
17570;SDS011;8903;52.220;20.978;2023-04-24T14:02:26;4.33;;;4.03;;
17570;SDS011;8903;52.220;20.978;2023-04-24T14:04:53;3.97;;;3.67;;
17570;SDS011;8903;52.220;20.978;2023-04-24T14:07:20;4.33;;;3.93;;
17570;SDS011;8903;52.220;20.978;2023-04-24T14:09:48;7.00;;;3.80;;
17570;SDS011;8903;52.220;20.978;2023-04-24T14:12:16;5.73;;;3.90;;
17570;SDS011;8903;52.220;20.978;2023-04-24T14:14:45;9.93;;;4.40;;
17570;SDS011;8903;52.220;20.978;2023-04-24T14:17:13;4.10;;;3.50;;
17570;SDS011;8903;52.220;20.978;2023-04-24T14:19:40;3.87;;;3.57;;
17570;SDS011;8903;52.220;20.978;2023-04-24T14:22:07;7.50;;;4.10;;
17570;SDS011;8903;52.220;20.978;2023-04-24T14:24:34;3.80;;;3.30;;
17570;SDS011;8903;52.220;20.978;2023-04-24T14:27:02;14.87;;;3.87;;
17570;SDS011;8903;52.220;20.978;2023-04-24T14:29:29;5.00;;;3.70;;
17570;SDS011;8903;52.220;20.978;2023-04-24T14:31:56;3.90;;;3.60;;
17570;SDS011;8903;52.220;20.978;2023-04-24T14:34:23;7.93;;;4.40;;
17570;SDS011;8903;52.220;20.978;2023-04-24T14:36:50;5.03;;;4.20;;
17570;SDS011;8903;52.220;20.978;2023-04-24T14:39:18;4.63;;;3.93;;
17570;SDS011;8903;52.220;20.978;2023-04-24T14:41:45;5.13;;;4.07;;
17570;SDS011;8903;52.220;20.978;2023-04-24T14:44:14;7.63;;;4.30;;